Sunday, July 22, 2018, 12:34 PM EDT
Back to Local

KMTN, Baltimore / Martin

Location: Middle River, MD, United States Lat: 39.333
Local Time: 12:34 PM EDT (16:34 GMT) Lon: -76.417
Time Zone: US/Eastern Elev: 22 ft

Show me the last for .
Show Decoded

2018-07-22 11:50 METAR KMTN 221550Z 12005KT 7SM RA BKN015 BKN040 23/22 A2989 =
2018-07-22 10:45 METAR KMTN 221445Z 12004KT 10SM BKN015 BKN085 23/21 A2988 =
2018-07-22 09:45 METAR KMTN 221345Z 15006KT 10SM BKN010 23/21 A2988 =
2018-07-22 08:45 METAR KMTN 221245Z 14005KT 10SM BKN010 BKN200 21/20 A2986 =
2018-07-22 07:45 METAR KMTN 221145Z 20004KT 10SM BKN010 BKN200 19/19 A2981 =
2018-07-22 06:45 METAR KMTN 221045Z 21005KT 10SM BKN008 BKN200 19/19 A2979 =
2018-07-22 05:45 METAR KMTN 220945Z 20005KT 10SM OVC008 19/19 A2975 =
2018-07-22 05:30 METAR KMTN 220930Z AUTO 19003KT 10SM OVC008 19/19 A2974 RMK AO2 =
2018-07-22 05:15 METAR KMTN 220915Z AUTO 18004KT 10SM OVC008 19/19 A2974 RMK AO2 =
2018-07-22 04:57 METAR KMTN 220857Z AUTO 20008KT 10SM OVC008 19/19 A2973 RMK AO2 =
2018-07-22 04:36 METAR KMTN 220836Z AUTO 22004KT 10SM OVC008 19/19 A2971 RMK AO2 =
2018-07-22 04:15 METAR KMTN 220815Z AUTO 22008KT 10SM OVC006 20/20 A2970 RMK AO2 =
2018-07-22 03:57 METAR KMTN 220757Z AUTO 20007KT 10SM BKN006 OVC013 20/20 A2969 RMK AO2 =
2018-07-22 03:36 METAR KMTN 220736Z AUTO 00000KT 10SM BKN013 OVC027 20/20 A2967 RMK AO2 =
2018-07-22 03:15 METAR KMTN 220715Z AUTO 20007KT 10SM OVC025 19/19 A2966 RMK AO2 =
2018-07-22 02:57 METAR KMTN 220657Z AUTO 25005KT 10SM BKN023 BKN075 19/19 A2963 RMK AO2 =
2018-07-22 02:36 METAR KMTN 220636Z AUTO 26007KT 10SM SCT016 BKN021 BKN030 19/19 A2962 RMK AO2 =
2018-07-22 02:15 METAR KMTN 220615Z AUTO 26008KT 10SM SCT010 BKN016 OVC080 20/20 A2962 RMK AO2 =
2018-07-22 01:57 METAR KMTN 220557Z AUTO 26009KT 10SM SCT013 SCT045 OVC080 20/20 A2960 RMK AO2
                 P0008 =
2018-07-22 01:36 METAR KMTN 220536Z AUTO 22004KT 10SM RA SCT019 BKN065 OVC080 20/20 A2958 RMK AO2
                 P0008 =
2018-07-22 01:15 METAR KMTN 220515Z AUTO 27003KT 5SM +RA SCT013 BKN031 OVC038 20/20 A2959 RMK AO2
                 P0004 =
2018-07-22 00:57 METAR KMTN 220457Z AUTO 27013G19KT 4SM +RA SCT012 BKN022 OVC033 20/20 A2959 RMK
                 AO2 P0052 =
2018-07-22 00:36 METAR KMTN 220436Z AUTO 25015G21KT 1 3/4SM +RA BKN003 OVC011 20/20 A2961 RMK AO2
                 P0045 =
2018-07-22 00:15 METAR KMTN 220415Z AUTO 21006KT 4SM +DZ OVC005 21/21 A2961 RMK AO2 P0003 =
2018-07-21 23:57 METAR KMTN 220357Z AUTO 34004KT 4SM +DZ BKN005 OVC009 21/21 A2960 RMK AO2 P0004
                 =
2018-07-21 23:36 METAR KMTN 220336Z AUTO 35005G15KT 5SM +DZ OVC007 21/21 A2962 RMK AO2 P0002 =
2018-07-21 23:15 METAR KMTN 220315Z AUTO 35005G18KT 10SM RA OVC007 21/21 A2963 RMK AO2 P0001 =
2018-07-21 22:57 METAR KMTN 220257Z AUTO 35008KT 279V029 4SM +RA OVC007 21/21 A2964 RMK AO2 P0028
                 =
2018-07-21 22:36 METAR KMTN 220236Z AUTO 02004KT 4SM +RA OVC007 21/21 A2968 RMK AO2 P0016 =
2018-07-21 22:15 METAR KMTN 220215Z AUTO 01004KT 4SM RA OVC007 20/20 A2970 RMK AO2 P0006 =
2018-07-21 21:45 METAR KMTN 220145Z 02014KT 6SM -RA OVC007 21/21 A2973 =
2018-07-21 20:45 METAR KMTN 220045Z 02015KT 4SM -RA BR OVC007 21/21 A2975 =
2018-07-21 19:45 METAR KMTN 212345Z 01018KT 4SM -RA OVC009 21/21 A2977 =
2018-07-21 18:45 METAR KMTN 212245Z 01018KT 6SM -RA OVC009 21/21 A2980 =
2018-07-21 17:45 METAR KMTN 212145Z 03018KT 010V080 3SM RA OVC007 21/21 A2982 =
2018-07-21 16:45 METAR KMTN 212045Z 04008KT 010V090 2 1/2SM +RA OVC009 21/21 A2985 =
2018-07-21 15:45 METAR KMTN 211945Z 04006KT 2SM RA OVC007 21/21 A2987 =
2018-07-21 14:50 METAR KMTN 211850Z 00000KT 2SM RA OVC007 21/21 A2990 =
2018-07-21 13:50 METAR KMTN 211750Z 34003KT 2SM RA BKN009 OVC018 20/20 A2993 =
2018-07-21 12:45 METAR KMTN 211645Z 01013KT 3SM RA BKN015 BKN032 OVC060 21/21 A2996 =

Support USWX by starting your Amazon purchase here.